Time;durP1;ratioP1;P1;durP2;ratioP2;P2;SDS_P1;SDS_P2;PMS_P1;PMS_P2;Temp;Humidity;BMP_temperature;BMP_pressure;BME280_temperature;BME280_humidity;BME280_pressure;Samples;Min_cycle;Max_cycle;Signal;HPM_P1;HPM_P2
2021/12/21 00:00:57;;;;;;;14.47;13.27;;;;;;;22.47;26.74;95109.34;4944310;28;102690;-53
2021/12/21 00:03:24;;;;;;;14.40;13.20;;;;;;;22.46;26.45;95112.31;4958537;28;102918;-53
2021/12/21 00:05:50;;;;;;;12.57;11.50;;;;;;;22.46;26.36;95114.97;4957041;28;103538;-53
2021/12/21 00:08:17;;;;;;;12.67;11.63;;;;;;;22.45;26.69;95122.16;4940512;28;103602;-53
2021/12/21 00:10:45;;;;;;;13.30;12.00;;;;;;;22.45;26.80;95116.06;4950680;28;102773;-53
2021/12/21 00:13:40;;;;;;;11.90;10.90;;;;;;;22.46;26.55;95117.63;4938111;28;103715;-53
2021/12/21 00:21:35;;;;;;;13.37;12.17;;;;;;;22.44;26.69;95120.59;4953749;28;103105;-53
2021/12/21 00:24:09;;;;;;;12.57;11.37;;;;;;;22.45;26.77;95124.03;4957914;28;102985;-53
2021/12/21 00:26:36;;;;;;;13.50;12.40;;;;;;;22.44;26.51;95125.13;4943137;28;103399;-53
2021/12/21 00:29:03;;;;;;;12.43;11.33;;;;;;;22.44;26.80;95130.44;4952774;28;102687;-53
2021/12/21 00:31:34;;;;;;;13.00;11.90;;;;;;;22.44;26.78;95130.44;4955862;28;102687;-53
2021/12/21 00:34:01;;;;;;;13.40;12.20;;;;;;;22.43;26.52;95129.66;4943244;28;103656;-53
2021/12/21 00:36:30;;;;;;;12.70;11.60;;;;;;;22.44;26.83;95130.44;4942165;28;102832;-53
2021/12/21 00:38:58;;;;;;;13.20;12.10;;;;;;;22.44;26.54;95131.25;4949856;28;103535;-52
2021/12/21 00:41:27;;;;;;;13.83;12.67;;;;;;;22.44;26.74;95139.22;4955339;28;102633;-53
2021/12/21 00:43:53;;;;;;;12.73;11.60;;;;;;;22.44;26.30;95139.22;4942764;28;102917;-53
2021/12/21 00:46:19;;;;;;;12.37;11.27;;;;;;;22.42;26.79;95141.41;4955584;28;103876;-53
2021/12/21 00:48:54;;;;;;;11.83;10.83;;;;;;;22.43;26.73;95142.97;4962486;28;102817;-53
2021/12/21 00:51:22;;;;;;;12.53;11.27;;;;;;;22.43;26.78;95142.19;4956289;28;102926;-53
2021/12/21 00:53:47;;;;;;;11.30;10.40;;;;;;;22.42;26.64;95143.28;4950187;28;103260;-53
2021/12/21 00:56:13;;;;;;;11.07;10.07;;;;;;;22.41;26.58;95142.50;4942617;28;103265;-53
2021/12/21 00:58:39;;;;;;;10.57;9.73;;;;;;;22.41;26.87;95137.16;4955380;28;102886;-53
2021/12/21 01:01:06;;;;;;;12.80;11.70;;;;;;;22.41;26.50;95147.81;4960570;28;102735;-53
2021/12/21 01:03:40;;;;;;;12.00;10.90;;;;;;;22.42;26.70;95137.94;4945625;28;103163;-53
2021/12/21 01:06:19;;;;;;;13.07;11.87;;;;;;;22.40;26.25;95146.25;4958585;28;102690;-53
2021/12/21 01:09:02;;;;;;;12.20;11.20;;;;;;;22.42;26.63;95153.94;4961531;28;102772;-52
2021/12/21 01:11:32;;;;;;;12.43;11.33;;;;;;;22.40;26.28;95143.56;4977063;28;103488;-52
2021/12/21 01:14:51;;;;;;;11.87;10.87;;;;;;;22.40;26.13;95148.91;4943155;28;104827;-52
2021/12/21 01:17:25;;;;;;;11.83;10.90;;;;;;;22.40;26.38;95146.25;4960721;28;102770;-52
2021/12/21 01:19:43;;;;;;;10.90;9.90;;;;;;;22.41;26.64;95142.50;4955341;28;104234;-52
2021/12/21 01:25:26;;;;;;;11.23;10.33;;;;;;;22.39;26.59;95149.19;4956934;28;103537;-52
2021/12/21 01:35:20;;;;;;;11.00;10.10;;;;;;;22.39;26.35;95154.53;4938974;28;103035;-52
2021/12/21 01:38:20;;;;;;;11.20;10.30;;;;;;;22.38;26.34;95159.06;4945946;28;102718;-52
2021/12/21 01:43:37;;;;;;;10.90;9.90;;;;;;;22.37;26.41;95159.38;4958583;28;103138;-52
2021/12/21 01:51:31;;;;;;;11.40;10.40;;;;;;;22.37;26.36;95154.03;4941406;28;102744;-53
2021/12/21 01:53:57;;;;;;;9.77;8.97;;;;;;;22.37;26.42;95154.81;4946998;28;102737;-53
2021/12/21 01:56:23;;;;;;;10.07;9.07;;;;;;;22.36;26.23;95149.81;4959742;28;103167;-53
2021/12/21 01:58:49;;;;;;;9.70;8.80;;;;;;;22.36;26.12;95158.56;4959862;28;102753;-53
2021/12/21 02:01:18;;;;;;;10.50;9.50;;;;;;;22.35;26.31;95159.66;4941610;28;103231;-53
2021/12/21 02:03:47;;;;;;;8.80;8.10;;;;;;;22.35;26.08;95143.69;4941679;28;103239;-52
2021/12/21 02:06:18;;;;;;;9.23;8.43;;;;;;;22.36;26.33;95147.13;4940843;28;102729;-52
2021/12/21 02:08:44;;;;;;;9.80;9.00;;;;;;;22.36;26.37;95153.25;4956524;28;103044;-53
2021/12/21 02:11:10;;;;;;;8.53;7.83;;;;;;;22.35;26.26;95146.34;4956309;28;102754;-53
2021/12/21 02:13:37;;;;;;;9.20;8.40;;;;;;;22.35;26.09;95151.69;4940732;28;102742;-53
2021/12/21 02:16:06;;;;;;;9.00;8.20;;;;;;;22.35;26.14;95146.34;4947088;28;103708;-53
2021/12/21 02:18:45;;;;;;;9.27;8.47;;;;;;;22.34;25.82;95152.75;4947179;28;102789;-52
2021/12/21 02:23:43;;;;;;;8.77;7.97;;;;;;;22.48;25.51;95150.84;4956461;28;102662;-51
2021/12/21 02:31:03;;;;;;;7.20;6.60;;;;;;;22.64;25.25;95156.63;4949004;28;103366;-51
2021/12/21 02:33:29;;;;;;;7.10;6.50;;;;;;;22.65;25.46;95166.19;4941472;28;102812;-51
2021/12/21 02:35:57;;;;;;;6.87;6.27;;;;;;;22.67;25.49;95160.56;4940117;28;102741;-51
2021/12/21 02:38:23;;;;;;;6.63;6.03;;;;;;;22.66;25.26;95157.13;4941037;28;103827;-51
2021/12/21 02:40:49;;;;;;;6.50;6.00;;;;;;;22.69;25.74;95153.09;4946861;28;102949;-51
2021/12/21 02:43:14;;;;;;;6.10;5.60;;;;;;;22.69;25.27;95166.41;4948929;28;102748;-51
2021/12/21 02:45:42;;;;;;;5.73;5.23;;;;;;;22.70;25.28;95157.34;4949638;28;103036;-51
2021/12/21 02:48:08;;;;;;;6.03;5.53;;;;;;;22.70;25.19;95167.97;4950914;28;103822;-51
2021/12/21 02:50:35;;;;;;;6.17;5.67;;;;;;;22.70;25.12;95160.78;4949224;28;102729;-51
2021/12/21 02:53:02;;;;;;;5.47;5.00;;;;;;;22.71;25.21;95162.34;4950767;28;102810;-51
2021/12/21 02:55:28;;;;;;;5.20;4.80;;;;;;;22.72;25.38;95155.94;4948438;28;104382;-51
2021/12/21 02:57:53;;;;;;;5.03;4.63;;;;;;;22.72;25.20;95163.16;4955934;28;103337;-50
2021/12/21 03:00:20;;;;;;;5.23;4.83;;;;;;;22.72;25.20;95160.47;4957730;28;103314;-51
2021/12/21 03:02:45;;;;;;;5.00;4.60;;;;;;;22.73;25.03;95172.72;4956824;28;103164;-51
2021/12/21 03:05:11;;;;;;;4.23;3.93;;;;;;;22.72;24.86;95158.59;4958496;28;102755;-51
2021/12/21 03:10:14;;;;;;;4.30;3.97;;;;;;;22.73;24.89;95164.72;4957986;28;103315;-51
2021/12/21 03:15:21;;;;;;;4.50;4.20;;;;;;;22.74;25.17;95168.94;4943177;28;103280;-50
2021/12/21 03:17:46;;;;;;;4.67;4.37;;;;;;;22.74;24.96;95160.97;4940607;28;103337;-51
2021/12/21 03:20:12;;;;;;;3.20;3.00;;;;;;;22.74;25.21;95177.72;4956878;28;102912;-51
2021/12/21 03:22:38;;;;;;;4.30;4.00;;;;;;;22.74;24.79;95175.06;4952559;28;102810;-51
2021/12/21 03:25:04;;;;;;;4.43;3.80;;;;;;;22.73;24.83;95181.47;4947745;28;102848;-51
2021/12/21 03:27:30;;;;;;;3.73;3.43;;;;;;;22.74;24.67;95182.28;4953003;28;102974;-51
2021/12/21 03:29:56;;;;;;;3.70;3.40;;;;;;;22.73;24.89;95180.69;4953705;28;102955;-51
2021/12/21 03:32:21;;;;;;;3.60;3.40;;;;;;;22.74;24.63;95182.28;4942906;28;102770;-51
2021/12/21 03:34:47;;;;;;;3.90;3.60;;;;;;;22.75;24.60;95178.53;4949525;28;103155;-51
2021/12/21 03:37:14;;;;;;;3.13;2.90;;;;;;;22.75;25.12;95181.97;4945045;28;103474;-51
2021/12/21 03:39:42;;;;;;;3.77;3.47;;;;;;;22.76;24.87;95183.53;4940014;28;104016;-50
2021/12/21 03:42:09;;;;;;;3.00;2.80;;;;;;;22.77;24.66;95184.34;4954737;28;103267;-51
2021/12/21 03:44:35;;;;;;;3.20;2.90;;;;;;;22.77;24.93;95182.47;4953026;28;103379;-50
2021/12/21 03:47:01;;;;;;;2.97;2.77;;;;;;;22.78;24.43;95183.25;4963537;28;102896;-50
2021/12/21 03:51:59;;;;;;;3.07;2.87;;;;;;;22.79;24.80;95184.81;4941072;28;102773;-51
2021/12/21 03:54:25;;;;;;;3.03;2.83;;;;;;;22.80;24.67;95205.03;4941909;28;102745;-51
2021/12/21 03:56:52;;;;;;;3.07;2.87;;;;;;;22.80;24.89;95197.03;4955511;28;102800;-51
2021/12/21 03:59:19;;;;;;;3.10;2.90;;;;;;;22.83;24.62;95203.69;4939796;28;102728;-50
2021/12/21 04:01:45;;;;;;;2.73;2.53;;;;;;;22.81;24.54;95206.63;4951585;28;103049;-51
2021/12/21 04:04:11;;;;;;;2.90;2.70;;;;;;;22.82;24.64;95210.88;4951108;28;104308;-51
2021/12/21 04:06:37;;;;;;;3.13;2.90;;;;;;;22.83;24.53;95209.00;4949245;28;102830;-50
2021/12/21 04:09:07;;;;;;;2.93;2.73;;;;;;;22.85;24.86;95207.63;4945129;28;102746;-51
2021/12/21 04:11:33;;;;;;;2.77;2.57;;;;;;;22.86;24.91;95214.53;4939496;28;102801;-51
2021/12/21 04:14:00;;;;;;;2.77;2.57;;;;;;;22.88;24.89;95215.03;4958019;28;103754;-51
2021/12/21 04:16:25;;;;;;;2.90;2.70;;;;;;;22.90;24.60;95228.06;4942254;28;102783;-51
2021/12/21 04:18:51;;;;;;;3.00;2.80;;;;;;;22.87;24.54;95221.44;4938976;28;102835;-54
2021/12/21 04:21:16;;;;;;;3.27;2.90;;;;;;;22.78;24.65;95212.53;4945101;28;103437;-52
2021/12/21 04:23:43;;;;;;;2.87;2.67;;;;;;;22.85;24.83;95220.19;4965338;28;104388;-50
2021/12/21 04:26:10;;;;;;;2.93;2.60;;;;;;;22.91;25.14;95227.75;4939364;28;102749;-50
2021/12/21 04:28:35;;;;;;;2.50;2.30;;;;;;;22.95;24.96;95225.25;4958785;28;102669;-50
2021/12/21 04:31:03;;;;;;;2.80;2.60;;;;;;;22.97;25.10;95229.19;4941577;28;102676;-51
2021/12/21 04:33:28;;;;;;;2.60;2.40;;;;;;;22.98;24.99;95220.13;4939206;28;103190;-51
2021/12/21 04:35:54;;;;;;;2.47;2.20;;;;;;;23.01;24.87;95213.41;4939552;28;102751;-51
2021/12/21 04:38:27;;;;;;;2.83;2.20;;;;;;;22.96;24.70;95214.31;4938548;28;102764;-52
2021/12/21 04:41:04;;;;;;;2.33;2.13;;;;;;;22.96;24.75;95216.19;4953486;28;102768;-52
2021/12/21 04:43:29;;;;;;;2.00;1.90;;;;;;;22.92;25.29;95220.53;4947052;28;102960;-51
2021/12/21 04:45:55;;;;;;;2.33;2.13;;;;;;;22.86;25.26;95219.09;4933907;28;102701;-52
2021/12/21 04:48:20;;;;;;;2.87;2.60;;;;;;;22.93;25.27;95219.44;4931113;28;102781;-52
2021/12/21 04:50:47;;;;;;;2.80;2.30;;;;;;;22.95;25.14;95215.41;4951110;28;102675;-52
2021/12/21 04:53:13;;;;;;;2.10;2.00;;;;;;;23.00;25.45;95217.16;4956720;28;103177;-52
2021/12/21 04:55:38;;;;;;;3.60;3.30;;;;;;;23.01;25.53;95219.53;4956466;28;103386;-52
2021/12/21 04:58:04;;;;;;;3.50;3.20;;;;;;;22.99;25.96;95227.03;4947272;28;103513;-52
2021/12/21 05:00:31;;;;;;;5.37;4.13;;;;;;;22.96;25.84;95230.28;4955178;28;102750;-53
2021/12/21 05:02:57;;;;;;;3.70;3.40;;;;;;;22.94;26.00;95224.47;4951313;28;103653;-53
2021/12/21 05:05:23;;;;;;;4.83;4.30;;;;;;;22.92;25.80;95221.31;4955453;28;103340;-52
2021/12/21 05:07:54;;;;;;;4.30;3.90;;;;;;;22.88;26.17;95223.03;4942941;28;102696;-53
2021/12/21 05:10:20;;;;;;;4.93;3.93;;;;;;;22.82;26.03;95218.88;4958816;28;103071;-53
2021/12/21 05:12:47;;;;;;;5.43;4.17;;;;;;;22.86;26.11;95233.19;4962028;28;102869;-51
2021/12/21 05:15:13;;;;;;;5.57;4.30;;;;;;;22.95;26.07;95235.94;4962131;28;103286;-51
2021/12/21 05:17:39;;;;;;;5.50;5.00;;;;;;;23.00;26.31;95230.47;4961362;28;103136;-51
2021/12/21 05:20:05;;;;;;;5.33;4.83;;;;;;;23.02;26.75;95231.00;4960550;28;102773;-51
2021/12/21 05:22:31;;;;;;;5.53;4.73;;;;;;;23.04;27.11;95240.25;4944732;28;102244;-51
2021/12/21 05:24:57;;;;;;;6.00;5.50;;;;;;;22.99;27.57;95247.56;4941789;28;102558;-51
2021/12/21 05:27:23;;;;;;;4.80;4.40;;;;;;;22.96;27.41;95246.28;4942175;28;102719;-51
2021/12/21 05:29:49;;;;;;;5.30;4.80;;;;;;;22.94;26.77;95245.78;4942576;28;102716;-51
2021/12/21 05:32:15;;;;;;;6.00;5.47;;;;;;;22.93;26.85;95241.56;4941905;28;104164;-51
2021/12/21 05:34:40;;;;;;;6.03;5.17;;;;;;;22.90;26.69;95244.81;4942345;28;103173;-51
2021/12/21 05:37:07;;;;;;;4.57;4.17;;;;;;;22.89;26.90;95248.56;4942574;28;102596;-52
2021/12/21 05:39:51;;;;;;;5.73;4.70;;;;;;;22.90;26.46;95249.38;4942266;28;102915;-52
2021/12/21 05:42:17;;;;;;;5.23;4.20;;;;;;;22.89;26.63;95255.78;4942010;28;103410;-54
2021/12/21 05:44:42;;;;;;;4.60;3.80;;;;;;;22.89;26.34;95269.09;4941008;28;102853;-52
2021/12/21 05:47:07;;;;;;;3.97;3.67;;;;;;;22.88;26.65;95270.19;4941477;28;102882;-52
2021/12/21 05:49:34;;;;;;;4.57;3.87;;;;;;;22.88;26.41;95273.66;4942512;28;102752;-52
2021/12/21 05:52:00;;;;;;;4.90;4.37;;;;;;;22.87;26.07;95264.06;4941969;28;102781;-52
2021/12/21 05:54:25;;;;;;;3.37;3.10;;;;;;;22.88;26.29;95272.84;4941405;28;103502;-52
2021/12/21 05:56:51;;;;;;;3.93;3.63;;;;;;;22.91;26.35;95283.69;4942087;28;103812;-52
2021/12/21 05:59:17;;;;;;;3.70;3.10;;;;;;;22.91;26.02;95277.59;4942471;28;103194;-52
2021/12/21 06:01:42;;;;;;;4.10;3.70;;;;;;;22.90;26.13;95278.66;4941443;28;102810;-52
2021/12/21 06:04:08;;;;;;;4.77;3.60;;;;;;;22.89;25.68;95285.88;4942044;28;102683;-52
2021/12/21 06:06:33;;;;;;;4.80;3.97;;;;;;;22.90;26.10;95287.44;4941177;28;102817;-52
2021/12/21 06:09:03;;;;;;;4.23;3.90;;;;;;;22.90;25.58;95287.44;4941757;28;102635;-52
2021/12/21 06:11:30;;;;;;;3.67;3.23;;;;;;;22.91;25.98;95297.03;4941047;28;103086;-52
2021/12/21 06:22:43;;;;;;;4.67;3.50;;;;;;;22.91;25.71;95305.00;4938669;28;103549;-52
2021/12/21 06:27:25;;;;;;;3.30;3.00;;;;;;;22.93;25.79;95315.38;4938448;28;102592;-52
2021/12/21 06:29:51;;;;;;;3.17;2.97;;;;;;;22.95;25.61;95319.31;4941828;28;103230;-52
2021/12/21 06:32:16;;;;;;;3.10;2.90;;;;;;;22.95;25.27;95329.97;4940998;28;103217;-52
2021/12/21 06:34:42;;;;;;;3.00;2.70;;;;;;;22.96;25.37;95328.09;4941503;28;102810;-52
2021/12/21 06:37:09;;;;;;;3.17;2.87;;;;;;;22.97;25.41;95330.47;4941266;28;102907;-52
2021/12/21 06:39:34;;;;;;;2.67;2.47;;;;;;;22.98;25.10;95325.91;4940881;28;103554;-52
2021/12/21 06:42:01;;;;;;;4.47;2.83;;;;;;;22.99;25.44;95330.16;4941069;28;102679;-52
2021/12/21 06:44:27;;;;;;;2.53;2.33;;;;;;;23.01;25.23;95335.97;4940719;28;102734;-52
2021/12/21 06:52:03;;;;;;;2.60;2.40;;;;;;;23.03;25.22;95360.47;4960660;28;102727;-52
2021/12/21 06:54:29;;;;;;;3.33;3.10;;;;;;;23.04;25.08;95354.84;4975257;28;103463;-52
2021/12/21 06:56:55;;;;;;;3.67;2.93;;;;;;;23.04;25.31;95360.19;4960137;28;102930;-52
2021/12/21 06:59:21;;;;;;;2.77;2.57;;;;;;;23.04;25.76;95368.16;4961108;28;102865;-53
2021/12/21 07:01:48;;;;;;;2.90;2.60;;;;;;;23.06;25.25;95370.53;4959162;28;102819;-52
2021/12/21 07:04:17;;;;;;;2.70;2.37;;;;;;;23.46;24.33;95374.22;4961483;28;103137;-52
2021/12/21 07:06:45;;;;;;;2.80;2.60;;;;;;;24.01;23.94;95374.06;4960674;28;102913;-52
2021/12/21 07:09:19;;;;;;;2.67;2.47;;;;;;;24.34;23.79;95371.19;4959825;28;103008;-52
2021/12/21 07:11:53;;;;;;;2.60;2.40;;;;;;;23.88;24.16;95374.94;4959383;28;102838;-53
2021/12/21 07:19:47;;;;;;;2.60;2.40;;;;;;;24.34;24.11;95385.31;4961251;28;103155;-53
2021/12/21 07:22:12;;;;;;;2.27;2.17;;;;;;;24.25;24.09;95395.16;4960253;28;102706;-52
2021/12/21 07:24:38;;;;;;;2.20;2.10;;;;;;;23.87;24.44;95381.38;4959638;28;103589;-52
2021/12/21 07:27:04;;;;;;;2.43;2.27;;;;;;;23.69;24.50;95383.91;4960083;28;103327;-53
2021/12/21 07:29:30;;;;;;;2.43;2.27;;;;;;;23.66;24.40;95395.16;4960896;28;102865;-52
2021/12/21 07:31:56;;;;;;;2.23;2.13;;;;;;;23.59;24.88;95392.13;4959036;28;103198;-52
2021/12/21 07:34:22;;;;;;;2.67;2.47;;;;;;;23.55;24.46;95390.31;4959148;28;102804;-52
2021/12/21 07:36:47;;;;;;;2.20;2.10;;;;;;;23.53;24.87;95395.16;4974746;28;104062;-52
2021/12/21 07:42:34;;;;;;;2.30;1.80;;;;;;;23.66;24.59;95410.38;4959880;28;103184;-52
2021/12/21 07:45:00;;;;;;;2.77;2.37;;;;;;;23.60;24.46;95407.03;4958976;28;103470;-51
2021/12/21 07:47:26;;;;;;;2.30;2.10;;;;;;;23.62;24.87;95420.84;4959861;28;103564;-55
2021/12/21 07:49:52;;;;;;;2.20;2.00;;;;;;;23.57;24.81;95406.84;4960378;28;103232;-53
2021/12/21 07:52:18;;;;;;;2.60;2.37;;;;;;;23.58;24.74;95409.22;4960074;28;103628;-53
2021/12/21 07:54:44;;;;;;;1.83;1.70;;;;;;;23.53;25.00;95417.28;4959228;28;103063;-53
2021/12/21 07:57:09;;;;;;;2.60;2.40;;;;;;;23.49;25.10;95415.50;4958816;28;102684;-53
2021/12/21 07:59:37;;;;;;;2.07;1.97;;;;;;;23.49;25.15;95418.97;4960011;28;102709;-53
2021/12/21 08:02:03;;;;;;;2.20;2.10;;;;;;;23.54;24.79;95421.53;4959329;28;102709;-53
2021/12/21 08:04:29;;;;;;;2.57;2.37;;;;;;;23.57;25.57;95412.19;4960123;28;103099;-54
2021/12/21 08:06:59;;;;;;;2.30;2.20;;;;;;;23.65;25.00;95409.56;4958748;28;102716;-53
2021/12/21 08:09:36;;;;;;;2.80;2.60;;;;;;;23.70;24.82;95416.69;4959230;28;102691;-53
2021/12/21 08:12:15;;;;;;;2.33;2.10;;;;;;;23.75;25.17;95418.47;4959738;28;102665;-54
2021/12/21 08:14:46;;;;;;;2.83;2.53;;;;;;;23.76;25.38;95420.03;4958948;28;104418;-53
2021/12/21 08:17:13;;;;;;;3.23;2.67;;;;;;;23.68;24.94;95414.34;4959266;28;102739;-54
2021/12/21 08:19:39;;;;;;;2.77;2.57;;;;;;;23.61;25.07;95413.94;4959874;28;103230;-53
2021/12/21 08:22:04;;;;;;;2.77;2.37;;;;;;;23.56;25.34;95418.56;4959149;28;102716;-54
2021/12/21 08:24:30;;;;;;;2.40;2.20;;;;;;;23.53;25.12;95435.97;4959386;28;102753;-52
2021/12/21 08:27:03;;;;;;;2.30;2.20;;;;;;;23.49;24.97;95426.97;4959629;28;103054;-52
2021/12/21 08:29:29;;;;;;;2.33;2.20;;;;;;;23.45;25.51;95439.31;4958215;28;102753;-52
2021/12/21 08:31:55;;;;;;;4.40;2.57;;;;;;;23.46;25.13;95438.22;4958857;28;102903;-52
2021/12/21 08:34:21;;;;;;;2.70;2.50;;;;;;;23.53;25.34;95437.84;4959321;28;103335;-52
2021/12/21 08:36:47;;;;;;;2.80;2.60;;;;;;;23.50;25.23;95439.22;4959317;28;102742;-52
2021/12/21 08:39:13;;;;;;;2.60;2.40;;;;;;;23.54;25.47;95450.88;4958884;28;102818;-53
2021/12/21 08:41:42;;;;;;;2.33;2.13;;;;;;;23.55;25.24;95447.13;4958359;28;103540;-52
2021/12/21 08:44:10;;;;;;;2.30;2.10;;;;;;;23.54;25.55;95442.88;4960984;28;102746;-52
2021/12/21 08:46:37;;;;;;;2.37;2.17;;;;;;;23.51;25.13;95430.13;4961987;28;102851;-52
2021/12/21 08:49:03;;;;;;;2.40;2.20;;;;;;;23.51;25.31;95440.00;4962787;28;102783;-52
2021/12/21 08:51:28;;;;;;;2.50;2.30;;;;;;;23.54;25.46;95439.44;4961703;28;103040;-52
2021/12/21 08:53:54;;;;;;;3.50;2.10;;;;;;;23.56;25.01;95439.91;4961978;28;102655;-52
2021/12/21 08:56:19;;;;;;;2.30;2.20;;;;;;;23.55;25.02;95444.47;4962528;28;102862;-52
2021/12/21 08:58:45;;;;;;;2.43;2.23;;;;;;;23.53;25.10;95427.97;4978730;28;102646;-52
2021/12/21 09:01:10;;;;;;;1.93;1.83;;;;;;;23.49;25.73;95431.50;4962883;28;103098;-52
2021/12/21 09:03:37;;;;;;;1.77;1.67;;;;;;;23.49;25.02;95431.50;4962687;28;102755;-52
2021/12/21 09:06:02;;;;;;;2.00;1.90;;;;;;;23.46;25.30;95438.22;4962765;28;102686;-52
2021/12/21 09:08:28;;;;;;;1.80;1.70;;;;;;;23.42;25.35;95434.59;4962553;28;102591;-52
2021/12/21 09:10:54;;;;;;;1.90;1.80;;;;;;;23.39;25.37;95446.63;4963086;28;102644;-52
2021/12/21 09:13:19;;;;;;;2.00;1.90;;;;;;;23.36;25.11;95433.13;4962371;28;103655;-51
2021/12/21 09:15:45;;;;;;;2.43;2.20;;;;;;;23.27;26.04;95445.56;4962572;28;102978;-51
2021/12/21 09:18:11;;;;;;;2.77;2.30;;;;;;;23.23;26.20;95444.56;4963568;28;102980;-51
2021/12/21 09:20:37;;;;;;;2.20;2.00;;;;;;;23.26;25.79;95449.31;4962431;28;102604;-51
2021/12/21 09:23:03;;;;;;;2.50;2.30;;;;;;;23.22;26.17;95445.66;4962139;28;103356;-53
2021/12/21 09:25:30;;;;;;;2.37;2.17;;;;;;;23.33;25.52;95453.16;4961576;28;103252;-51
2021/12/21 09:27:56;;;;;;;2.50;1.97;;;;;;;23.47;25.17;95447.81;4962460;28;102824;-51
2021/12/21 09:30:24;;;;;;;2.60;2.40;;;;;;;23.55;25.02;95457.00;4961509;28;102686;-51
2021/12/21 09:32:51;;;;;;;2.10;2.00;;;;;;;23.57;25.43;95449.53;4962520;28;103377;-51
2021/12/21 09:35:17;;;;;;;2.40;2.20;;;;;;;23.64;25.06;95456.03;4961492;28;102905;-51
2021/12/21 09:37:43;;;;;;;2.30;2.10;;;;;;;23.71;24.96;95455.63;4962245;28;102718;-51
2021/12/21 09:40:13;;;;;;;2.60;2.10;;;;;;;23.75;24.79;95456.59;4962052;28;102911;-51
2021/12/21 09:42:39;;;;;;;2.57;2.37;;;;;;;23.78;24.84;95449.88;4962676;28;102687;-51
2021/12/21 09:45:05;;;;;;;2.30;2.10;;;;;;;23.73;25.32;95455.31;4961870;28;102642;-51
2021/12/21 09:47:32;;;;;;;2.00;1.87;;;;;;;23.75;24.77;95456.59;4961493;28;102731;-51
2021/12/21 09:49:58;;;;;;;1.90;1.80;;;;;;;23.77;25.15;95445.63;4961911;28;103172;-51
2021/12/21 09:52:29;;;;;;;2.40;2.20;;;;;;;23.80;25.01;95453.03;4961621;28;102808;-50
2021/12/21 09:54:55;;;;;;;2.43;2.23;;;;;;;23.78;25.09;95456.00;4961509;28;103159;-51
2021/12/21 09:57:21;;;;;;;2.57;2.37;;;;;;;23.77;25.00;95457.09;4961459;28;102687;-51
2021/12/21 09:59:49;;;;;;;2.23;2.03;;;;;;;23.82;24.66;95456.97;4961278;28;103523;-50
2021/12/21 10:02:18;;;;;;;2.10;1.90;;;;;;;23.80;24.60;95459.16;4961952;28;103083;-50
2021/12/21 10:04:50;;;;;;;2.30;2.10;;;;;;;23.82;24.52;95458.84;4961496;28;103428;-51
2021/12/21 10:07:18;;;;;;;2.03;1.93;;;;;;;23.86;24.52;95460.66;4961524;28;102794;-50
2021/12/21 10:09:46;;;;;;;2.50;2.30;;;;;;;23.86;24.61;95452.63;4961800;28;103741;-53
2021/12/21 10:12:34;;;;;;;2.00;1.90;;;;;;;23.89;24.99;95460.03;4962160;28;103887;-52
2021/12/21 10:15:17;;;;;;;3.10;1.90;;;;;;;23.92;24.70;95455.97;4962423;28;103731;-51
2021/12/21 10:17:50;;;;;;;2.57;2.00;;;;;;;23.92;24.59;95451.44;4961174;28;102808;-52
2021/12/21 10:20:37;;;;;;;1.90;1.80;;;;;;;23.94;25.00;95448.44;4961295;28;102739;-51
2021/12/21 10:23:12;;;;;;;1.90;1.80;;;;;;;23.94;24.63;95441.22;4961725;28;103374;-52
2021/12/21 10:25:57;;;;;;;1.90;1.80;;;;;;;23.95;24.51;95448.16;4961374;28;102922;-52
2021/12/21 10:28:37;;;;;;;1.73;1.63;;;;;;;23.96;24.87;95447.06;4961488;28;102660;-51
2021/12/21 10:31:23;;;;;;;2.40;2.20;;;;;;;23.97;24.66;95442.50;4961136;28;102738;-52
2021/12/21 10:33:49;;;;;;;1.83;1.73;;;;;;;23.98;24.65;95436.06;4961273;28;102784;-52
2021/12/21 10:36:15;;;;;;;2.00;1.90;;;;;;;23.99;24.69;95448.34;4960706;28;102769;-51
2021/12/21 10:38:51;;;;;;;1.97;1.87;;;;;;;23.98;24.61;95450.22;4961510;28;102738;-51
2021/12/21 10:41:33;;;;;;;1.77;1.67;;;;;;;23.91;24.61;95454.41;4960498;28;104441;-52
2021/12/21 10:44:03;;;;;;;1.70;1.60;;;;;;;23.87;24.75;95453.44;4960483;28;102805;-52
2021/12/21 10:46:31;;;;;;;1.80;1.70;;;;;;;23.90;24.62;95452.81;4961581;28;103049;-52
2021/12/21 10:49:12;;;;;;;1.77;1.67;;;;;;;23.92;24.95;95455.97;4961488;28;102710;-51
2021/12/21 10:51:50;;;;;;;2.20;2.00;;;;;;;23.92;24.39;95454.09;4941048;28;102654;-52
2021/12/21 10:54:30;;;;;;;1.90;1.80;;;;;;;23.92;24.94;95451.44;4941316;28;102757;-51
2021/12/21 10:56:58;;;;;;;1.80;1.70;;;;;;;23.92;24.51;95456.75;4941533;28;102882;-51
2021/12/21 10:59:37;;;;;;;1.60;1.50;;;;;;;23.91;24.46;95452.50;4941270;28;102857;-51
2021/12/21 11:02:10;;;;;;;1.73;1.63;;;;;;;23.92;24.52;95445.28;4941853;28;103095;-51
2021/12/21 11:04:42;;;;;;;1.90;1.80;;;;;;;23.92;24.60;95439.97;4941124;28;102986;-51
2021/12/21 11:07:22;;;;;;;2.63;1.77;;;;;;;23.92;25.03;95447.97;4940065;28;103145;-51
2021/12/21 11:10:14;;;;;;;1.63;1.53;;;;;;;23.92;24.88;95453.31;4940241;28;102720;-51
2021/12/21 11:12:52;;;;;;;1.97;1.80;;;;;;;23.91;24.76;95449.06;4940594;28;102693;-51
2021/12/21 11:15:28;;;;;;;1.87;1.77;;;;;;;23.92;24.93;95455.97;4940373;28;102649;-51
2021/12/21 11:17:54;;;;;;;1.80;1.70;;;;;;;23.90;24.58;95455.50;4941079;28;103217;-51
2021/12/21 11:20:20;;;;;;;1.80;1.70;;;;;;;23.90;24.62;95455.50;4941490;28;103251;-51
2021/12/21 11:22:45;;;;;;;1.90;1.80;;;;;;;23.90;25.06;95455.50;4940782;28;102784;-51
2021/12/21 11:25:12;;;;;;;1.70;1.60;;;;;;;23.91;25.14;95457.06;4940339;28;102706;-51
2021/12/21 11:27:41;;;;;;;1.77;1.67;;;;;;;23.88;24.77;95452.34;4955510;28;102870;-51
2021/12/21 11:30:10;;;;;;;1.60;1.50;;;;;;;23.87;25.06;95448.09;4941907;28;103097;-51
2021/12/21 11:32:43;;;;;;;1.70;1.53;;;;;;;23.86;25.05;95441.19;4940946;28;102739;-52
2021/12/21 11:37:36;;;;;;;1.80;1.60;;;;;;;23.84;25.18;95440.66;4939403;28;102782;-51
2021/12/21 11:40:05;;;;;;;1.70;1.60;;;;;;;23.83;24.72;95450.53;4941327;28;103715;-51
2021/12/21 11:42:35;;;;;;;1.87;1.77;;;;;;;23.82;24.94;95438.28;4940480;28;102855;-52
2021/12/21 11:45:13;;;;;;;1.43;1.33;;;;;;;23.81;25.34;95436.72;4940325;28;103260;-51
2021/12/21 11:48:02;;;;;;;1.60;1.50;;;;;;;23.79;24.91;95444.22;4939393;28;104071;-51
2021/12/21 11:50:29;;;;;;;1.83;1.73;;;;;;;23.78;24.81;95447.22;4952508;28;102719;-52
2021/12/21 11:53:00;;;;;;;1.73;1.63;;;;;;;23.77;25.01;95450.97;4959732;28;104334;-51
2021/12/21 11:55:27;;;;;;;1.57;1.47;;;;;;;23.74;24.82;95449.69;4959917;28;102822;-51
2021/12/21 11:58:12;;;;;;;2.33;1.90;;;;;;;23.72;24.95;95443.88;4959136;28;102822;-51
2021/12/21 12:00:38;;;;;;;1.93;1.70;;;;;;;23.72;24.68;95441.19;4961049;28;103226;-51
2021/12/21 12:03:13;;;;;;;1.87;1.77;;;;;;;23.68;24.91;95430.34;4960236;28;102897;-51
2021/12/21 12:05:49;;;;;;;1.50;1.40;;;;;;;23.66;24.95;95429.81;4959933;28;103562;-51
2021/12/21 12:08:14;;;;;;;1.43;1.33;;;;;;;23.65;25.07;95436.25;4959896;28;102684;-51
2021/12/21 12:10:57;;;;;;;1.60;1.50;;;;;;;23.64;24.88;95440.00;4960173;28;102759;-51
2021/12/21 12:13:32;;;;;;;1.50;1.40;;;;;;;23.63;25.08;95430.44;4959747;28;103336;-52
2021/12/21 12:16:26;;;;;;;1.73;1.63;;;;;;;23.62;25.06;95430.72;4959855;28;104518;-51
2021/12/21 12:18:52;;;;;;;1.90;1.80;;;;;;;23.61;25.25;95445.16;4961540;28;102696;-51
2021/12/21 12:21:24;;;;;;;2.43;2.23;;;;;;;23.60;24.93;95444.38;4963127;28;103336;-51
2021/12/21 12:23:55;;;;;;;1.83;1.73;;;;;;;23.56;25.00;95443.38;4963025;28;102742;-51
2021/12/21 12:26:36;;;;;;;2.07;1.70;;;;;;;23.54;24.76;95456.22;4963226;28;102544;-52
2021/12/21 12:29:41;;;;;;;2.00;1.70;;;;;;;23.54;25.06;95466.09;4962824;28;103152;-51
2021/12/21 12:32:07;;;;;;;2.20;2.00;;;;;;;23.53;25.17;95467.19;4959528;28;102951;-52
2021/12/21 12:34:36;;;;;;;1.73;1.63;;;;;;;23.54;25.21;95468.75;4962734;28;102939;-52
2021/12/21 12:37:23;;;;;;;2.10;1.90;;;;;;;23.51;24.85;95472.78;4963130;28;102514;-51
2021/12/21 12:39:51;;;;;;;1.80;1.70;;;;;;;23.50;24.89;95475.75;4962779;28;103195;-51